DTA653 LPPT-FNLU
Flight info
| Callsign | DTA653 |
|---|---|
| Flight time | N/A |
| Altitude | 35000 |
| Route | DUZOP1L DUZOP DCT AMSEL UR722 SAK UW900 OZT UJ744 BAGBO UM629 USRUT/N0485F370 UM629 KELEX/N0485F380 UA608 TYE/N0488F370 UZ136 KINBU UR983 GAPAK/N0484F390 UA400 VNA DCT |
| Aircraft | B772/H-SDE2E3FGHIJ5LORVWXY/LB1D1 |
Departure
| Time | N/A |
|---|---|
| Airport | Lisbon Humberto Delgado Airport (LPPT) |
Arrival
| Time | 2026-05-01 09:48 |
|---|---|
| Airport | Quatro de Fevereiro International Airport (FNLU) |
| Time | Latitude | Longitude | Altitude | Speed | Heading |
|---|---|---|---|---|---|
| 2026-05-01 07:23 | 4.75653 | 2.83170 | 36927 ft | 474 kts | 162° |
| 2026-05-01 07:24 | 4.66116 | 2.85773 | 36917 ft | 473 kts | 162° |
| 2026-05-01 07:24 | 4.59750 | 2.87508 | 36923 ft | 473 kts | 162° |
| 2026-05-01 07:25 | 4.53390 | 2.89242 | 36917 ft | 473 kts | 162° |
| 2026-05-01 07:25 | 4.47035 | 2.90976 | 36924 ft | 473 kts | 162° |
| 2026-05-01 07:26 | 4.40677 | 2.92711 | 36922 ft | 473 kts | 162° |
| 2026-05-01 07:26 | 4.34323 | 2.94444 | 36922 ft | 473 kts | 162° |
| 2026-05-01 07:27 | 4.28005 | 2.96167 | 36916 ft | 473 kts | 162° |
| 2026-05-01 07:27 | 4.21650 | 2.97900 | 36924 ft | 474 kts | 162° |
| 2026-05-01 07:28 | 4.15285 | 2.99634 | 36932 ft | 474 kts | 162° |
| 2026-05-01 07:28 | 4.08907 | 3.01374 | 36915 ft | 474 kts | 162° |
| 2026-05-01 07:29 | 4.02596 | 3.03259 | 36911 ft | 472 kts | 155° |
| 2026-05-01 07:29 | 3.96885 | 3.06316 | 36930 ft | 468 kts | 144° |
| 2026-05-01 07:30 | 3.91778 | 3.10346 | 36909 ft | 467 kts | 139° |
| 2026-05-01 07:30 | 3.86762 | 3.14477 | 36918 ft | 467 kts | 139° |
| 2026-05-01 07:31 | 3.81731 | 3.18595 | 36912 ft | 467 kts | 139° |
| 2026-05-01 07:32 | 3.69106 | 3.28831 | 36927 ft | 467 kts | 139° |
| 2026-05-01 07:33 | 3.61527 | 3.34965 | 36921 ft | 467 kts | 139° |
| 2026-05-01 07:33 | 3.53950 | 3.41101 | 36928 ft | 467 kts | 139° |
| 2026-05-01 07:34 | 3.46409 | 3.47207 | 36932 ft | 467 kts | 139° |
| 2026-05-01 07:35 | 3.41359 | 3.51294 | 36927 ft | 467 kts | 139° |
| 2026-05-01 07:35 | 3.36310 | 3.55381 | 36929 ft | 466 kts | 139° |
| 2026-05-01 07:36 | 3.31263 | 3.59463 | 36932 ft | 466 kts | 139° |
| 2026-05-01 07:36 | 3.26213 | 3.63548 | 36929 ft | 466 kts | 139° |
| 2026-05-01 07:37 | 3.18642 | 3.69672 | 36936 ft | 467 kts | 140° |
| 2026-05-01 07:37 | 3.13591 | 3.73757 | 36933 ft | 467 kts | 140° |
| 2026-05-01 07:38 | 3.08537 | 3.77846 | 36937 ft | 467 kts | 140° |
| 2026-05-01 07:39 | 3.00951 | 3.83979 | 36935 ft | 468 kts | 140° |
| 2026-05-01 07:39 | 2.93371 | 3.90107 | 36935 ft | 468 kts | 140° |
| 2026-05-01 07:40 | 2.88300 | 3.94205 | 36934 ft | 468 kts | 140° |
| 2026-05-01 07:40 | 2.83233 | 3.98302 | 36935 ft | 468 kts | 140° |
| 2026-05-01 07:41 | 2.78176 | 4.02389 | 36937 ft | 467 kts | 140° |
| 2026-05-01 07:42 | 2.70594 | 4.08516 | 36936 ft | 467 kts | 140° |
| 2026-05-01 07:42 | 2.65544 | 4.12597 | 36938 ft | 467 kts | 140° |
| 2026-05-01 07:43 | 2.60489 | 4.16678 | 36948 ft | 467 kts | 140° |
| 2026-05-01 07:43 | 2.52930 | 4.22783 | 36944 ft | 467 kts | 140° |
| 2026-05-01 07:44 | 2.42813 | 4.30954 | 36943 ft | 468 kts | 140° |
| 2026-05-01 07:45 | 2.37752 | 4.35041 | 36945 ft | 467 kts | 140° |
| 2026-05-01 07:45 | 2.32692 | 4.39123 | 36943 ft | 467 kts | 140° |
| 2026-05-01 07:46 | 2.27632 | 4.43207 | 36946 ft | 467 kts | 140° |
| 2026-05-01 07:47 | 2.20045 | 4.49332 | 36944 ft | 467 kts | 140° |
| 2026-05-01 07:47 | 2.14989 | 4.53414 | 36946 ft | 467 kts | 140° |
| 2026-05-01 07:48 | 2.07400 | 4.59536 | 36947 ft | 467 kts | 140° |
| 2026-05-01 07:48 | 2.02377 | 4.63590 | 36955 ft | 467 kts | 140° |
| 2026-05-01 07:49 | 1.94792 | 4.69711 | 36954 ft | 467 kts | 140° |
| 2026-05-01 07:50 | 1.89734 | 4.73794 | 36955 ft | 467 kts | 140° |
| 2026-05-01 07:50 | 1.83000 | 4.79225 | 36953 ft | 467 kts | 140° |
| 2026-05-01 07:51 | 1.77947 | 4.83297 | 36954 ft | 466 kts | 140° |
| 2026-05-01 07:52 | 1.70366 | 4.89411 | 36954 ft | 466 kts | 140° |
| 2026-05-01 07:52 | 1.65317 | 4.93486 | 36953 ft | 466 kts | 140° |
| 2026-05-01 07:53 | 1.57726 | 4.99606 | 36951 ft | 467 kts | 140° |
| 2026-05-01 07:53 | 1.52672 | 5.03682 | 36954 ft | 467 kts | 140° |
| 2026-05-01 07:55 | 1.40037 | 5.13869 | 36954 ft | 467 kts | 140° |
| 2026-05-01 07:56 | 1.27432 | 5.24031 | 36953 ft | 466 kts | 140° |
| 2026-05-01 07:57 | 1.19857 | 5.30137 | 36954 ft | 466 kts | 140° |
| 2026-05-01 07:58 | 1.09763 | 5.38272 | 36952 ft | 466 kts | 140° |
| 2026-05-01 07:59 | 0.99662 | 5.46416 | 36954 ft | 466 kts | 140° |
| 2026-05-01 07:59 | 0.94985 | 5.50860 | 36951 ft | 464 kts | 127° |
| 2026-05-01 08:00 | 0.88779 | 5.62139 | 37645 ft | 463 kts | 114° |
| 2026-05-01 08:01 | 0.84782 | 5.70898 | 38471 ft | 461 kts | 114° |
| 2026-05-01 08:01 | 0.83434 | 5.73813 | 38692 ft | 462 kts | 114° |
| 2026-05-01 08:01 | 0.82100 | 5.76684 | 38861 ft | 463 kts | 114° |
| 2026-05-01 08:02 | 0.79370 | 5.82545 | 38946 ft | 465 kts | 114° |
| 2026-05-01 08:03 | 0.75297 | 5.91287 | 38949 ft | 460 kts | 114° |
| 2026-05-01 08:03 | 0.71263 | 5.99956 | 38953 ft | 457 kts | 114° |
| 2026-05-01 08:04 | 0.65908 | 6.11458 | 38957 ft | 456 kts | 114° |
| 2026-05-01 08:05 | 0.61893 | 6.20081 | 38956 ft | 459 kts | 114° |
| 2026-05-01 08:06 | 0.57844 | 6.28779 | 38958 ft | 462 kts | 114° |
| 2026-05-01 08:07 | 0.52409 | 6.40450 | 38955 ft | 464 kts | 114° |
| 2026-05-01 08:08 | 0.48325 | 6.49223 | 38953 ft | 464 kts | 114° |
| 2026-05-01 08:09 | 0.42887 | 6.60889 | 38955 ft | 463 kts | 114° |
| 2026-05-01 08:09 | 0.40144 | 6.66707 | 38954 ft | 462 kts | 115° |
| 2026-05-01 08:10 | 0.36531 | 6.71997 | 38959 ft | 464 kts | 131° |
| 2026-05-01 08:10 | 0.31673 | 6.76185 | 38964 ft | 465 kts | 143° |
| 2026-05-01 08:11 | 0.20979 | 6.83572 | 38955 ft | 466 kts | 143° |
| 2026-05-01 08:12 | 0.13047 | 6.89137 | 38954 ft | 466 kts | 143° |
| 2026-05-01 08:13 | 0.05081 | 6.94760 | 38950 ft | 467 kts | 143° |
| 2026-05-01 08:13 | -0.02884 | 7.00377 | 38954 ft | 467 kts | 143° |
| 2026-05-01 08:14 | -0.08196 | 7.04123 | 38954 ft | 467 kts | 143° |
| 2026-05-01 08:14 | -0.13514 | 7.07871 | 38956 ft | 468 kts | 143° |
| 2026-05-01 08:15 | -0.21492 | 7.13496 | 38955 ft | 468 kts | 143° |
| 2026-05-01 08:16 | -0.26810 | 7.17246 | 38953 ft | 468 kts | 143° |
| 2026-05-01 08:16 | -0.32139 | 7.21004 | 39143 ft | 470 kts | 143° |
| 2026-05-01 08:16 | -0.34805 | 7.22883 | 39394 ft | 469 kts | 143° |
| 2026-05-01 08:17 | -0.37469 | 7.24761 | 39676 ft | 467 kts | 143° |
| 2026-05-01 08:17 | -0.40122 | 7.26634 | 39953 ft | 466 kts | 143° |
| 2026-05-01 08:17 | -0.42738 | 7.28478 | 40198 ft | 465 kts | 143° |
| 2026-05-01 08:17 | -0.45379 | 7.30345 | 40374 ft | 466 kts | 143° |
| 2026-05-01 08:18 | -0.48020 | 7.32217 | 40553 ft | 466 kts | 143° |
| 2026-05-01 08:18 | -0.53307 | 7.35968 | 40879 ft | 466 kts | 143° |
| 2026-05-01 08:19 | -0.58622 | 7.39738 | 40958 ft | 469 kts | 143° |
| 2026-05-01 08:19 | -0.63935 | 7.43505 | 40957 ft | 466 kts | 143° |
| 2026-05-01 08:20 | -0.69215 | 7.47249 | 40962 ft | 465 kts | 143° |
| 2026-05-01 08:20 | -0.74493 | 7.50965 | 40961 ft | 463 kts | 143° |
| 2026-05-01 08:21 | -0.79788 | 7.54637 | 40972 ft | 463 kts | 143° |
| 2026-05-01 08:21 | -0.85061 | 7.58321 | 40968 ft | 463 kts | 143° |
| 2026-05-01 08:22 | -0.90294 | 7.62012 | 40962 ft | 464 kts | 143° |
| 2026-05-01 08:22 | -0.95573 | 7.65733 | 40962 ft | 465 kts | 143° |
| 2026-05-01 08:23 | -1.00867 | 7.69460 | 40962 ft | 466 kts | 143° |
| 2026-05-01 08:23 | -1.06170 | 7.73203 | 40968 ft | 467 kts | 143° |
| 2026-05-01 08:24 | -1.11482 | 7.76968 | 40968 ft | 468 kts | 143° |
| 2026-05-01 08:24 | -1.16804 | 7.80741 | 40965 ft | 469 kts | 143° |
| 2026-05-01 08:25 | -1.22140 | 7.84522 | 40979 ft | 470 kts | 143° |
| 2026-05-01 08:25 | -1.27473 | 7.88301 | 40983 ft | 470 kts | 143° |
| 2026-05-01 08:26 | -1.32774 | 7.92059 | 40982 ft | 470 kts | 143° |
| 2026-05-01 08:26 | -1.38127 | 7.95840 | 40983 ft | 471 kts | 143° |
| 2026-05-01 08:27 | -1.43478 | 7.99604 | 40981 ft | 471 kts | 143° |
| 2026-05-01 08:27 | -1.48836 | 8.03375 | 40982 ft | 471 kts | 143° |
| 2026-05-01 08:28 | -1.54187 | 8.07145 | 40979 ft | 470 kts | 143° |
| 2026-05-01 08:28 | -1.59530 | 8.10910 | 40980 ft | 470 kts | 143° |
| 2026-05-01 08:29 | -1.64884 | 8.14683 | 40981 ft | 470 kts | 143° |
| 2026-05-01 08:29 | -1.70231 | 8.18451 | 40982 ft | 470 kts | 143° |
| 2026-05-01 08:30 | -1.75578 | 8.22219 | 40981 ft | 470 kts | 143° |
| 2026-05-01 08:30 | -1.80901 | 8.25970 | 40983 ft | 470 kts | 143° |
| 2026-05-01 08:31 | -1.86246 | 8.29738 | 40982 ft | 470 kts | 143° |
| 2026-05-01 08:31 | -1.91594 | 8.33509 | 40983 ft | 470 kts | 143° |
| 2026-05-01 08:32 | -1.96948 | 8.37285 | 40980 ft | 470 kts | 143° |
| 2026-05-01 08:32 | -2.02297 | 8.41058 | 40982 ft | 470 kts | 143° |
| 2026-05-01 08:33 | -2.07616 | 8.44809 | 40981 ft | 470 kts | 143° |
| 2026-05-01 08:33 | -2.12962 | 8.48580 | 40983 ft | 470 kts | 143° |
| 2026-05-01 08:34 | -2.18307 | 8.52354 | 40983 ft | 470 kts | 143° |
| 2026-05-01 08:34 | -2.23653 | 8.56129 | 40982 ft | 470 kts | 143° |
| 2026-05-01 08:35 | -2.28991 | 8.59898 | 40984 ft | 470 kts | 143° |
| 2026-05-01 08:35 | -2.34335 | 8.63673 | 40986 ft | 470 kts | 143° |
| 2026-05-01 08:36 | -2.39677 | 8.67447 | 40974 ft | 470 kts | 143° |
| 2026-05-01 08:36 | -2.45010 | 8.71214 | 40981 ft | 469 kts | 143° |
| 2026-05-01 08:37 | -2.49438 | 8.74342 | 40982 ft | 469 kts | 143° |
| 2026-05-01 08:37 | -2.54760 | 8.78103 | 40986 ft | 468 kts | 143° |
| 2026-05-01 08:38 | -2.60073 | 8.81857 | 40993 ft | 467 kts | 143° |
| 2026-05-01 08:38 | -2.65382 | 8.85609 | 40990 ft | 467 kts | 143° |
| 2026-05-01 08:39 | -2.70692 | 8.89363 | 40990 ft | 466 kts | 143° |
| 2026-05-01 08:39 | -2.75984 | 8.93105 | 40992 ft | 466 kts | 143° |
| 2026-05-01 08:40 | -2.83895 | 8.98696 | 40991 ft | 466 kts | 143° |
| 2026-05-01 08:40 | -2.89185 | 9.02433 | 40992 ft | 466 kts | 143° |
| 2026-05-01 08:41 | -2.94476 | 9.06172 | 40991 ft | 465 kts | 143° |
| 2026-05-01 08:41 | -2.99766 | 9.09913 | 40989 ft | 465 kts | 143° |
| 2026-05-01 08:42 | -3.05053 | 9.13651 | 40989 ft | 465 kts | 143° |
| 2026-05-01 08:42 | -3.10338 | 9.17388 | 40990 ft | 465 kts | 143° |
| 2026-05-01 08:43 | -3.15628 | 9.21129 | 40991 ft | 465 kts | 143° |
| 2026-05-01 08:43 | -3.20911 | 9.24866 | 40991 ft | 465 kts | 143° |
| 2026-05-01 08:44 | -3.26199 | 9.28608 | 40991 ft | 465 kts | 143° |
| 2026-05-01 08:44 | -3.31487 | 9.32350 | 40991 ft | 465 kts | 143° |
| 2026-05-01 08:45 | -3.36738 | 9.36066 | 40991 ft | 465 kts | 143° |
| 2026-05-01 08:45 | -3.42026 | 9.39811 | 40990 ft | 465 kts | 143° |
| 2026-05-01 08:46 | -3.47306 | 9.43553 | 40990 ft | 465 kts | 143° |
| 2026-05-01 08:46 | -3.52587 | 9.47297 | 41000 ft | 465 kts | 143° |
| 2026-05-01 08:47 | -3.57866 | 9.51041 | 40999 ft | 465 kts | 143° |
| 2026-05-01 08:47 | -3.63148 | 9.54787 | 41003 ft | 465 kts | 143° |
| 2026-05-01 08:48 | -3.68430 | 9.58534 | 41000 ft | 465 kts | 143° |
| 2026-05-01 08:48 | -3.73715 | 9.62283 | 41001 ft | 465 kts | 143° |
| 2026-05-01 08:49 | -3.78965 | 9.66009 | 41003 ft | 465 kts | 143° |
| 2026-05-01 08:49 | -3.84244 | 9.69754 | 40998 ft | 465 kts | 143° |
| 2026-05-01 08:50 | -3.89526 | 9.73498 | 41000 ft | 465 kts | 143° |
| 2026-05-01 08:50 | -3.94812 | 9.77244 | 40999 ft | 465 kts | 143° |
| 2026-05-01 08:51 | -4.00090 | 9.80987 | 41000 ft | 465 kts | 143° |
| 2026-05-01 08:51 | -4.05366 | 9.84729 | 41002 ft | 465 kts | 143° |
| 2026-05-01 08:52 | -4.10646 | 9.88475 | 41002 ft | 465 kts | 143° |
| 2026-05-01 08:52 | -4.15920 | 9.92218 | 41002 ft | 465 kts | 143° |
| 2026-05-01 08:53 | -4.21198 | 9.95964 | 40999 ft | 465 kts | 143° |
| 2026-05-01 08:53 | -4.26471 | 9.99705 | 41002 ft | 465 kts | 143° |
| 2026-05-01 08:54 | -4.31744 | 10.03443 | 41001 ft | 464 kts | 143° |
| 2026-05-01 08:54 | -4.37022 | 10.07187 | 41003 ft | 465 kts | 143° |
| 2026-05-01 08:55 | -4.42297 | 10.10931 | 40996 ft | 465 kts | 143° |
| 2026-05-01 08:55 | -4.47575 | 10.14678 | 41000 ft | 465 kts | 143° |
| 2026-05-01 08:56 | -4.52850 | 10.18424 | 40999 ft | 465 kts | 143° |
| 2026-05-01 08:56 | -4.58127 | 10.22172 | 41001 ft | 465 kts | 143° |
| 2026-05-01 08:57 | -4.63380 | 10.25903 | 41004 ft | 465 kts | 143° |
| 2026-05-01 08:57 | -4.68659 | 10.29661 | 41001 ft | 465 kts | 143° |
| 2026-05-01 08:58 | -4.73931 | 10.33430 | 41004 ft | 466 kts | 143° |
| 2026-05-01 08:58 | -4.79207 | 10.37201 | 41002 ft | 466 kts | 143° |
| 2026-05-01 08:59 | -4.84488 | 10.40975 | 40997 ft | 466 kts | 143° |
| 2026-05-01 08:59 | -4.89775 | 10.44741 | 40989 ft | 466 kts | 143° |
| 2026-05-01 09:00 | -4.95072 | 10.48495 | 40989 ft | 466 kts | 143° |
| 2026-05-01 09:00 | -5.00337 | 10.52228 | 40993 ft | 466 kts | 143° |
| 2026-05-01 09:01 | -5.05635 | 10.55988 | 40991 ft | 466 kts | 143° |
| 2026-05-01 09:01 | -5.10935 | 10.59752 | 40990 ft | 467 kts | 143° |
| 2026-05-01 09:02 | -5.16238 | 10.63519 | 40991 ft | 467 kts | 143° |
| 2026-05-01 09:02 | -5.21526 | 10.67276 | 40992 ft | 467 kts | 143° |
| 2026-05-01 09:03 | -5.26842 | 10.71054 | 40994 ft | 467 kts | 143° |
| 2026-05-01 09:03 | -5.32118 | 10.74797 | 40991 ft | 467 kts | 143° |
| 2026-05-01 09:04 | -5.37448 | 10.78539 | 40989 ft | 467 kts | 144° |
| 2026-05-01 09:04 | -5.42782 | 10.82278 | 40992 ft | 467 kts | 144° |
| 2026-05-01 09:05 | -5.48107 | 10.86017 | 40990 ft | 467 kts | 143° |
| 2026-05-01 09:05 | -5.53427 | 10.89756 | 40991 ft | 467 kts | 143° |
| 2026-05-01 09:06 | -5.58718 | 10.93477 | 40991 ft | 467 kts | 143° |
| 2026-05-01 09:06 | -5.64037 | 10.97218 | 40992 ft | 467 kts | 143° |
| 2026-05-01 09:07 | -5.69346 | 11.00953 | 40990 ft | 466 kts | 143° |
| 2026-05-01 09:07 | -5.74665 | 11.04695 | 40991 ft | 466 kts | 143° |
| 2026-05-01 09:08 | -5.79966 | 11.08427 | 40992 ft | 466 kts | 143° |
| 2026-05-01 09:08 | -5.85269 | 11.12160 | 40990 ft | 465 kts | 143° |
| 2026-05-01 09:09 | -5.90568 | 11.15891 | 40990 ft | 465 kts | 143° |
| 2026-05-01 09:09 | -5.95860 | 11.19618 | 40992 ft | 464 kts | 143° |
| 2026-05-01 09:10 | -6.01136 | 11.23335 | 40993 ft | 463 kts | 144° |
| 2026-05-01 09:10 | -6.06406 | 11.27049 | 40988 ft | 462 kts | 144° |
| 2026-05-01 09:11 | -6.11669 | 11.30758 | 40990 ft | 461 kts | 144° |
| 2026-05-01 09:11 | -6.16920 | 11.34460 | 40992 ft | 461 kts | 144° |
| 2026-05-01 09:12 | -6.22165 | 11.38159 | 40990 ft | 460 kts | 144° |
| 2026-05-01 09:12 | -6.27408 | 11.41857 | 40992 ft | 460 kts | 144° |
| 2026-05-01 09:13 | -6.32651 | 11.45556 | 40992 ft | 460 kts | 144° |
| 2026-05-01 09:13 | -6.37857 | 11.49230 | 40991 ft | 460 kts | 144° |
| 2026-05-01 09:14 | -6.43094 | 11.52927 | 40990 ft | 460 kts | 144° |
| 2026-05-01 09:14 | -6.48333 | 11.56626 | 40992 ft | 460 kts | 144° |
| 2026-05-01 09:15 | -6.53579 | 11.60331 | 40991 ft | 461 kts | 144° |
| 2026-05-01 09:15 | -6.58821 | 11.64035 | 40991 ft | 461 kts | 144° |
| 2026-05-01 09:16 | -6.64076 | 11.67748 | 40991 ft | 461 kts | 144° |
| 2026-05-01 09:17 | -6.71920 | 11.73292 | 40991 ft | 461 kts | 144° |
| 2026-05-01 09:17 | -6.79800 | 11.78865 | 40990 ft | 462 kts | 144° |
| 2026-05-01 09:18 | -6.87685 | 11.84443 | 40991 ft | 462 kts | 144° |
| 2026-05-01 09:19 | -6.95581 | 11.90031 | 40991 ft | 462 kts | 144° |
| 2026-05-01 09:20 | -7.03488 | 11.95630 | 40991 ft | 463 kts | 144° |
| 2026-05-01 09:21 | -7.13988 | 12.03070 | 40996 ft | 463 kts | 144° |
| 2026-05-01 09:21 | -7.21762 | 12.08831 | 40987 ft | 462 kts | 137° |
| 2026-05-01 09:22 | -7.30819 | 12.18011 | 40934 ft | 463 kts | 134° |
| 2026-05-01 09:23 | -7.33106 | 12.20339 | 40205 ft | 470 kts | 134° |
| 2026-05-01 09:23 | -7.37682 | 12.24979 | 38796 ft | 465 kts | 134° |
| 2026-05-01 09:24 | -7.42227 | 12.29581 | 37246 ft | 462 kts | 135° |
| 2026-05-01 09:24 | -7.44489 | 12.31874 | 36435 ft | 461 kts | 135° |
| 2026-05-01 09:24 | -7.48997 | 12.36438 | 34595 ft | 464 kts | 135° |
| 2026-05-01 09:25 | -7.53587 | 12.41086 | 32427 ft | 472 kts | 135° |
| 2026-05-01 09:25 | -7.58263 | 12.45825 | 30323 ft | 477 kts | 136° |
| 2026-05-01 09:26 | -7.60593 | 12.48191 | 29498 ft | 474 kts | 136° |
| 2026-05-01 09:26 | -7.65209 | 12.52874 | 27850 ft | 467 kts | 135° |
| 2026-05-01 09:26 | -7.67489 | 12.55188 | 27058 ft | 464 kts | 135° |
| 2026-05-01 09:27 | -7.72011 | 12.59774 | 25470 ft | 457 kts | 135° |
| 2026-05-01 09:27 | -7.73492 | 12.61278 | 24949 ft | 455 kts | 135° |
| 2026-05-01 09:27 | -7.75709 | 12.63527 | 24175 ft | 451 kts | 134° |
| 2026-05-01 09:28 | -7.77912 | 12.65764 | 23406 ft | 447 kts | 134° |
| 2026-05-01 09:28 | -7.80092 | 12.67977 | 22645 ft | 443 kts | 134° |
| 2026-05-01 09:28 | -7.82254 | 12.70173 | 21901 ft | 439 kts | 134° |
| 2026-05-01 09:28 | -7.84393 | 12.72346 | 21153 ft | 435 kts | 134° |
| 2026-05-01 09:29 | -7.88616 | 12.76635 | 19732 ft | 427 kts | 134° |
| 2026-05-01 09:29 | -7.90699 | 12.78751 | 19046 ft | 423 kts | 134° |
| 2026-05-01 09:30 | -7.94805 | 12.82926 | 17697 ft | 416 kts | 133° |
| 2026-05-01 09:30 | -7.96835 | 12.84993 | 17037 ft | 413 kts | 134° |
| 2026-05-01 09:30 | -8.00853 | 12.89076 | 15733 ft | 407 kts | 134° |
| 2026-05-01 09:31 | -8.02844 | 12.91101 | 15092 ft | 405 kts | 134° |
| 2026-05-01 09:31 | -8.04822 | 12.93112 | 14453 ft | 402 kts | 134° |
| 2026-05-01 09:31 | -8.08720 | 12.97078 | 13199 ft | 398 kts | 134° |
| 2026-05-01 09:32 | -8.10670 | 12.99062 | 12569 ft | 397 kts | 134° |
| 2026-05-01 09:32 | -8.14530 | 13.02991 | 11415 ft | 392 kts | 134° |
| 2026-05-01 09:32 | -8.16441 | 13.04937 | 10960 ft | 387 kts | 134° |
| 2026-05-01 09:33 | -8.18310 | 13.06841 | 10707 ft | 376 kts | 134° |
| 2026-05-01 09:33 | -8.20124 | 13.08689 | 10532 ft | 365 kts | 134° |
| 2026-05-01 09:33 | -8.23595 | 13.12223 | 10218 ft | 344 kts | 134° |
| 2026-05-01 09:34 | -8.25256 | 13.13916 | 10087 ft | 334 kts | 134° |
| 2026-05-01 09:34 | -8.26876 | 13.15567 | 9862 ft | 328 kts | 134° |
| 2026-05-01 09:34 | -8.29903 | 13.18652 | 9267 ft | 289 kts | 134° |
| 2026-05-01 09:35 | -8.31302 | 13.20078 | 8918 ft | 286 kts | 134° |
| 2026-05-01 09:35 | -8.34109 | 13.22942 | 8270 ft | 288 kts | 134° |
| 2026-05-01 09:35 | -8.35521 | 13.24383 | 7949 ft | 289 kts | 134° |
| 2026-05-01 09:36 | -8.36936 | 13.25827 | 7627 ft | 290 kts | 134° |
| 2026-05-01 09:36 | -8.38354 | 13.27274 | 7311 ft | 290 kts | 134° |
| 2026-05-01 09:36 | -8.39775 | 13.28725 | 6984 ft | 291 kts | 134° |
| 2026-05-01 09:36 | -8.41180 | 13.30157 | 6677 ft | 277 kts | 134° |
| 2026-05-01 09:37 | -8.42519 | 13.31521 | 6463 ft | 270 kts | 134° |
| 2026-05-01 09:37 | -8.44974 | 13.34022 | 6201 ft | 230 kts | 134° |
| 2026-05-01 09:37 | -8.46054 | 13.35126 | 6121 ft | 217 kts | 134° |
| 2026-05-01 09:38 | -8.48383 | 13.37186 | 5922 ft | 227 kts | 162° |
| 2026-05-01 09:38 | -8.49937 | 13.37411 | 5811 ft | 228 kts | 176° |
| 2026-05-01 09:38 | -8.51531 | 13.37533 | 5642 ft | 231 kts | 175° |
| 2026-05-01 09:39 | -8.54736 | 13.37824 | 5312 ft | 230 kts | 175° |
| 2026-05-01 09:39 | -8.56325 | 13.37969 | 5145 ft | 228 kts | 175° |
| 2026-05-01 09:39 | -8.57899 | 13.38115 | 4988 ft | 226 kts | 174° |
| 2026-05-01 09:40 | -8.59464 | 13.38260 | 4838 ft | 225 kts | 175° |
| 2026-05-01 09:40 | -8.62544 | 13.38550 | 4556 ft | 222 kts | 174° |
| 2026-05-01 09:40 | -8.64045 | 13.38690 | 4493 ft | 216 kts | 174° |
| 2026-05-01 09:41 | -8.65467 | 13.38824 | 4324 ft | 195 kts | 174° |
| 2026-05-01 09:41 | -8.67891 | 13.39053 | 3837 ft | 161 kts | 175° |
| 2026-05-01 09:41 | -8.68983 | 13.39156 | 3537 ft | 154 kts | 175° |
| 2026-05-01 09:42 | -8.70023 | 13.39235 | 3185 ft | 146 kts | 184° |
| 2026-05-01 09:42 | -8.70924 | 13.38800 | 2886 ft | 153 kts | 230° |
| 2026-05-01 09:42 | -8.72437 | 13.37417 | 2999 ft | 145 kts | 218° |
| 2026-05-01 09:43 | -8.73960 | 13.36061 | 2986 ft | 145 kts | 224° |
| 2026-05-01 09:43 | -8.74669 | 13.35341 | 2982 ft | 144 kts | 225° |
| 2026-05-01 09:43 | -8.75356 | 13.34620 | 2984 ft | 141 kts | 226° |
| 2026-05-01 09:44 | -8.76749 | 13.33129 | 2734 ft | 148 kts | 226° |
| 2026-05-01 09:44 | -8.77447 | 13.32381 | 2512 ft | 143 kts | 226° |
| 2026-05-01 09:44 | -8.78119 | 13.31659 | 2340 ft | 140 kts | 226° |
| 2026-05-01 09:45 | -8.78792 | 13.30932 | 2151 ft | 142 kts | 226° |
| 2026-05-01 09:45 | -8.80121 | 13.29503 | 1800 ft | 139 kts | 225° |
| 2026-05-01 09:45 | -8.80784 | 13.28791 | 1614 ft | 139 kts | 225° |
| 2026-05-01 09:46 | -8.81447 | 13.28079 | 1417 ft | 138 kts | 225° |
| 2026-05-01 09:46 | -8.82103 | 13.27375 | 1231 ft | 138 kts | 226° |
| 2026-05-01 09:46 | -8.82757 | 13.26667 | 1046 ft | 138 kts | 225° |
| 2026-05-01 09:46 | -8.83388 | 13.25934 | 837 ft | 138 kts | 228° |
| 2026-05-01 09:47 | -8.84023 | 13.25217 | 683 ft | 136 kts | 224° |
| 2026-05-01 09:47 | -8.84704 | 13.24547 | 542 ft | 137 kts | 223° |
| 2026-05-01 09:47 | -8.85379 | 13.23849 | 360 ft | 138 kts | 226° |
| 2026-05-01 09:47 | -8.86023 | 13.23153 | 278 ft | 128 kts | 226° |
| 2026-05-01 09:48 | -8.86554 | 13.22594 | 265 ft | 87 kts | 227° |
| 2026-05-01 09:48 | -8.86837 | 13.22293 | 263 ft | 33 kts | 229° |
| 2026-05-01 09:48 | -8.86784 | 13.22213 | 262 ft | 16 kts | 18° |
| 2026-05-01 09:48 | -8.86718 | 13.22286 | 263 ft | 13 kts | 73° |
| 2026-05-01 09:49 | -8.86709 | 13.22375 | 263 ft | 12 kts | 84° |
| 2026-05-01 09:49 | -8.86682 | 13.22451 | 264 ft | 12 kts | 58° |
| 2026-05-01 09:49 | -8.86627 | 13.22510 | 264 ft | 12 kts | 44° |
| 2026-05-01 09:49 | -8.86571 | 13.22569 | 265 ft | 12 kts | 47° |
| 2026-05-01 09:50 | -8.86517 | 13.22630 | 265 ft | 12 kts | 44° |
| 2026-05-01 09:50 | -8.86449 | 13.22671 | 263 ft | 12 kts | 14° |
| 2026-05-01 09:50 | -8.86368 | 13.22679 | 263 ft | 12 kts | 6° |
| 2026-05-01 09:50 | -8.86285 | 13.22684 | 263 ft | 12 kts | 7° |
| 2026-05-01 09:51 | -8.86209 | 13.22716 | 263 ft | 12 kts | 37° |
| 2026-05-01 09:51 | -8.86152 | 13.22777 | 263 ft | 12 kts | 46° |
| 2026-05-01 09:51 | -8.86095 | 13.22838 | 263 ft | 12 kts | 47° |
| 2026-05-01 09:51 | -8.86038 | 13.22899 | 263 ft | 12 kts | 46° |
| 2026-05-01 09:52 | -8.85973 | 13.22965 | 263 ft | 17 kts | 45° |
| 2026-05-01 09:52 | -8.85861 | 13.23047 | 263 ft | 22 kts | 16° |
| 2026-05-01 09:52 | -8.85709 | 13.23062 | 264 ft | 22 kts | 359° |
| 2026-05-01 09:52 | -8.85556 | 13.23067 | 264 ft | 22 kts | 2° |
| 2026-05-01 09:53 | -8.85403 | 13.23072 | 265 ft | 22 kts | 2° |
| 2026-05-01 09:53 | -8.85249 | 13.23076 | 265 ft | 22 kts | 1° |
| 2026-05-01 09:53 | -8.85110 | 13.23117 | 264 ft | 22 kts | 58° |
| 2026-05-01 09:53 | -8.85034 | 13.23251 | 264 ft | 22 kts | 54° |
| 2026-05-01 09:54 | -8.84969 | 13.23391 | 264 ft | 22 kts | 67° |
| 2026-05-01 09:54 | -8.84958 | 13.23496 | 264 ft | 10 kts | 141° |
| 2026-05-01 09:54 | -8.85019 | 13.23526 | 263 ft | 10 kts | 155° |
| 2026-05-01 09:54 | -8.85037 | 13.23588 | 263 ft | 10 kts | 83° |
| 2026-05-01 09:55 | -8.85013 | 13.23653 | 263 ft | 9 kts | 56° |
| 2026-05-01 09:55 | -8.84957 | 13.23663 | 263 ft | 9 kts | 334° |
| 2026-05-01 09:55 | -8.84947 | 13.23653 | 263 ft | 2 kts | 308° |
| 2026-05-01 09:55 | -8.84941 | 13.23643 | 263 ft | 2 kts | 303° |
| 2026-05-01 09:56 | -8.84940 | 13.23642 | 263 ft | 0 kts | 303° |
| 2026-05-01 09:57 | -8.84942 | 13.23643 | 263 ft | 0 kts | 308° |